• Join FlightAware (Why Join?)
  • Login
  • US Flag 
11:09PM EDT


 

Airport Tracker/Info


-or-


 

Live Flight TrackerFlight Track Log ✈ PDT4244 ✈ 23-Apr-2012 ✈ KHTS - KCLT

Flight Track Log - Related Links

Times and Time Zones

All times are in EDT time to prevent confusion due to time zone crossing. See the PDT4244 flight status page for this flight to view local times or setup timezone preferences in your user account.

Time Position Orientation Groundspeed Altitude Reporting Facility
EDT Latitude Longitude Course Direction KTS MPH feet Rate Location/Type
06:21PM 38.3551 -82.5536 269° West  Level FlightAware Approximate
06:22PM 38.3077 -82.5331 307° West  Level FlightAware Approximate
06:23PM 38.3542 -82.6117 171° South 157 181 3,300  Level Indianapolis Center
06:24PM 38.3039 -82.6017 167° South 181 208 5,000 1,500 Climbing Indianapolis Center
06:25PM 38.2517 -82.5864 164° South 190 219 6,400 1,380 Climbing Indianapolis Center
06:26PM 38.2014 -82.5686 164° South 190 219 7,800 1,320 Climbing Indianapolis Center
06:27PM 38.1533 -82.5508 168° South 190 219 9,100 1,380 Climbing Indianapolis Center
06:28PM 38.0989 -82.5356 169° South 196 226 10,600 1,320 Climbing Indianapolis Center
06:29PM 38.0406 -82.5206 170° South 207 238 11,800 1,200 Climbing Indianapolis Center
06:30PM 37.9778 -82.5058 170° South 215 247 13,000 1,200 Climbing Indianapolis Center
06:31PM 37.9131 -82.4908 170° South 235 270 14,200 1,200 Climbing Indianapolis Center
06:32PM 37.8461 -82.4761 168° South 240 276 15,400 1,140 Climbing Indianapolis Center
06:33PM 37.7811 -82.4586 168° South 240 276 16,500 1,080 Climbing Indianapolis Center
06:34PM 37.7164 -82.4411 169° South 240 276 17,600 1,020 Climbing Indianapolis Center
06:35PM 37.6536 -82.4264 168° South 240 276 18,600 660 Climbing Indianapolis Center
06:36PM 37.5867 -82.4092 169° South 240 276 19,000 180 Climbing Indianapolis Center
06:37PM 37.5136 -82.3919 167° South 261 300 19,000  Level Indianapolis Center
06:38PM 37.4383 -82.3694 170° South 279 321 19,000  Level Indianapolis Center
06:39PM 37.3589 -82.3525 169° South 284 327 19,000  Level Indianapolis Center
06:40PM 37.2794 -82.3328 169° South 291 335 19,000  Level Indianapolis Center
06:41PM 37.1825 -82.3089 167° South 308 354 19,000  Level Atlanta Center
06:42PM 37.1050 -82.2872 168° South 295 339 19,000  Level Atlanta Center
06:43PM 37.0233 -82.2658 169° South 295 339 19,000  Level Atlanta Center
06:44PM 36.9522 -82.2492 168° South 295 339 19,000  Level Atlanta Center
06:45PM 36.8708 -82.2278 171° South 295 339 19,000 -120 Level Atlanta Center
06:46PM 36.7914 -82.2114 168° South 295 339 18,800 -600 Descending Atlanta Center
06:47PM 36.7075 -82.1900 170° South 303 349 17,900 -840 Descending Atlanta Center
06:48PM 36.6197 -82.1714 170° South 319 367 17,200 -720 Descending Atlanta Center
06:49PM 36.5317 -82.1528 170° South 319 367 16,500 -720 Descending Atlanta Center
06:50PM 36.4461 -82.1342 153° Southeast 314 361 15,800 -720 Descending Atlanta Center
06:51PM 36.3661 -82.0844 151° Southeast 319 367 15,100 -720 Descending Atlanta Center
06:52PM 36.2900 -82.0322 150° Southeast 319 367 14,400 -720 Descending Atlanta Center
06:53PM 36.2056 -81.9725 152° Southeast 314 361 13,700 -720 Descending Atlanta Center
06:54PM 36.1256 -81.9206 152° Southeast 319 367 13,000 -720 Descending Atlanta Center
06:55PM 36.0453 -81.8686 153° Southeast 319 367 12,300 -720 Descending Atlanta Center
06:56PM 35.9672 -81.8194 154° Southeast 324 373 11,600 -660 Descending Atlanta Center
06:57PM 35.8914 -81.7728 153° Southeast 324 373 11,000 -300 Descending Atlanta Center
06:58PM 35.8175 -81.7264 150° Southeast 313 360 11,100 60 Climbing Atlanta Center
06:58PM 35.7731 -81.6942 152° Southeast 289 333 11,100  Level Atlanta Center
06:59PM 35.7286 -81.6647 153° Southeast 289 333 11,100  Level Atlanta Center
07:00PM 35.6822 -81.6356 153° Southeast 293 337 11,100  Level Atlanta Center
07:01PM 35.6125 -81.5917 135° Southeast 288 331 11,100  Level Atlanta Center
07:02PM 35.5592 -81.5267 128° Southeast 278 320 11,100 -300 Level Atlanta Center
07:03PM 35.5136 -81.4542 125° Southeast 272 313 10,600 -600 Descending Atlanta Center
07:04PM 35.4661 -81.3717 126° Southeast 289 333 9,900 -780 Descending Atlanta Center
07:05PM 35.4183 -81.2917 110° East 289 333 9,100 -480 Descending Atlanta Center
07:06PM 35.3914 -81.2008 106° East 277 319 9,000 -60 Descending Atlanta Center
07:07PM 35.3692 -81.1078 109° East 268 308 9,000  Level FAA TRACON SMA TRACON (SMA)
07:07PM 35.3547 -81.0553 109° East 264 304 9,000  Level FAA TRACON SMA TRACON (SMA)
07:08PM 35.3381 -80.9964 109° East 264 304 9,000  Level FAA TRACON SMA TRACON (SMA)
07:09PM 35.3228 -80.9414 136° Southeast 265 305 9,000  Level FAA TRACON SMA TRACON (SMA)
07:09PM 35.2861 -80.8986 146° Southeast 271 312 9,000  Level FAA TRACON SMA TRACON (SMA)
07:10PM 35.2425 -80.8622 169° South 269 310 9,000 -720 Level FAA TRACON SMA TRACON (SMA)
07:11PM 35.1953 -80.8508 169° South 269 310 8,100 -1,560 Descending FAA TRACON SMA TRACON (SMA)
07:11PM 35.1408 -80.8378 170° South 263 303 6,900 -1,800 Descending FAA TRACON SMA TRACON (SMA)
07:12PM 35.0986 -80.8286 188° South 252 290 5,700 -1,980 Descending FAA TRACON SMA TRACON (SMA)
07:13PM 35.0556 -80.8358 261° West 235 270 4,300 -1,680 Descending FAA TRACON SMA TRACON (SMA)
07:13PM 35.0508 -80.8722 315° West 218 251 3,500 -1,020 Descending FAA TRACON SMA TRACON (SMA)
07:14PM 35.0772 -80.9044 336° Northwest 193 222 3,000 -780 Descending FAA TRACON SMA TRACON (SMA)
07:15PM 35.1056 -80.9200 336° Northwest 164 189 2,500 -780 Descending FAA TRACON SMA TRACON (SMA)